Time;durP1;ratioP1;P1;durP2;ratioP2;P2;SDS_P1;SDS_P2;PMS_P1;PMS_P2;Temp;Humidity;BMP_temperature;BMP_pressure;BME280_temperature;BME280_humidity;BME280_pressure;Samples;Min_cycle;Max_cycle;Signal;HPM_P1;HPM_P2
2022/03/22 00:00:05;;;;;;;;;35.33;31.33;;;;;11.67;100.00;102388.84;4999883;28;44818;-82
2022/03/22 00:02:31;;;;;;;;;30.00;30.00;;;;;11.63;100.00;102397.88;5000635;28;45298;-82
2022/03/22 00:04:56;;;;;;;;;35.50;30.00;;;;;11.59;100.00;102391.84;5000809;28;45409;-81
2022/03/22 00:07:22;;;;;;;;;30.25;25.50;;;;;11.56;100.00;102392.00;5001031;28;44843;-83
2022/03/22 00:09:47;;;;;;;;;34.00;28.25;;;;;11.55;100.00;102395.56;5001862;28;45222;-83
2022/03/22 00:12:13;;;;;;;;;27.75;26.25;;;;;11.55;100.00;102394.69;5002360;28;44813;-83
2022/03/22 00:14:38;;;;;;;;;31.00;29.50;;;;;11.53;100.00;102402.75;5002142;28;45105;-82
2022/03/22 00:17:04;;;;;;;;;27.00;24.67;;;;;11.49;100.00;102400.31;5004808;28;44688;-82
2022/03/22 00:19:30;;;;;;;;;28.67;28.67;;;;;11.48;100.00;102393.25;5003861;28;44674;-80
2022/03/22 00:21:55;;;;;;;;;31.67;28.00;;;;;11.49;100.00;102400.31;5001778;28;45249;-82
2022/03/22 00:24:21;;;;;;;;;13.00;13.00;;;;;11.47;100.00;102397.72;5002570;28;45072;-83
2022/03/22 00:26:46;;;;;;;;;22.75;21.00;;;;;11.47;100.00;102405.69;5002890;28;45222;-81
2022/03/22 00:29:12;;;;;;;;;25.50;22.25;;;;;11.44;100.00;102407.63;5001985;28;44814;-81
2022/03/22 00:31:39;;;;;;;;;29.00;26.75;;;;;11.41;100.00;102405.97;5001623;28;44878;-81
2022/03/22 00:34:04;;;;;;;;;29.50;27.50;;;;;11.39;100.00;102410.47;5001645;28;45374;-82
2022/03/22 00:36:31;;;;;;;;;31.67;29.00;;;;;11.38;100.00;102411.41;5000398;28;45344;-81
2022/03/22 00:38:57;;;;;;;;;29.50;27.75;;;;;11.35;100.00;102416.00;4997284;28;44786;-81
2022/03/22 00:41:23;;;;;;;;;29.00;24.25;;;;;11.32;100.00;102417.00;4998046;28;45418;-82
2022/03/22 00:43:48;;;;;;;;;31.00;25.75;;;;;11.29;100.00;102418.00;4997858;28;45539;-81
2022/03/22 00:46:14;;;;;;;;;29.33;28.67;;;;;11.26;100.00;102423.44;5000534;28;44724;-80
2022/03/22 00:48:40;;;;;;;;;29.75;26.25;;;;;11.22;100.00;102416.53;5006415;28;45077;-82
2022/03/22 00:51:06;;;;;;;;;30.50;29.25;;;;;11.20;100.00;102420.19;5000256;28;45206;-82
2022/03/22 00:53:32;;;;;;;;;25.33;23.33;;;;;11.17;100.00;102420.31;5001238;28;45219;-81
2022/03/22 00:56:01;;;;;;;;;27.00;24.67;;;;;11.15;100.00;102415.06;5001971;28;45367;-80
2022/03/22 00:58:27;;;;;;;;;27.25;23.25;;;;;11.13;100.00;102414.28;5001643;28;44742;-81
2022/03/22 01:00:52;;;;;;;;;21.00;20.75;;;;;11.11;100.00;102415.25;5000929;28;44975;-81
2022/03/22 01:03:17;;;;;;;;;28.33;23.67;;;;;11.09;100.00;102414.47;4998939;28;44927;-80
2022/03/22 01:05:43;;;;;;;;;28.67;26.00;;;;;11.06;100.00;102407.47;5000864;28;45441;-81
2022/03/22 01:08:11;;;;;;;;;27.67;26.00;;;;;11.04;100.00;102414.66;5003578;28;44842;-82
2022/03/22 01:10:41;;;;;;;;;23.75;23.00;;;;;11.02;100.00;102419.16;5004591;28;44798;-81
2022/03/22 01:13:07;;;;;;;;;27.75;24.50;;;;;10.99;100.00;102411.31;5003178;28;45435;-81
2022/03/22 01:15:35;;;;;;;;;24.75;24.50;;;;;10.97;100.00;102415.81;5004292;28;45456;-81
2022/03/22 01:18:05;;;;;;;;;28.33;24.33;;;;;10.94;100.00;102406.19;5006503;28;45395;-81
2022/03/22 01:20:33;;;;;;;;;28.33;25.00;;;;;10.92;100.00;102405.38;5005209;28;44869;-81
2022/03/22 01:23:02;;;;;;;;;31.67;26.33;;;;;10.92;100.00;102407.19;5003447;28;45125;-81
2022/03/22 01:25:28;;;;;;;;;30.00;27.67;;;;;10.91;100.00;102403.66;5003915;28;44640;-80
2022/03/22 01:27:55;;;;;;;;;29.67;26.00;;;;;10.91;100.00;102400.13;5003884;28;45435;-81
2022/03/22 01:30:22;;;;;;;;;28.67;21.00;;;;;10.91;100.00;102405.47;5003462;28;45436;-80
2022/03/22 01:32:52;;;;;;;;;35.67;28.67;;;;;10.90;100.00;102401.94;5003480;28;45417;-81
2022/03/22 01:35:18;;;;;;;;;31.67;28.67;;;;;10.91;100.00;102408.97;5004164;28;44754;-82
2022/03/22 01:37:48;;;;;;;;;31.33;26.67;;;;;10.90;100.00;102398.41;5005933;28;44840;-81
2022/03/22 01:40:16;;;;;;;;;31.67;27.00;;;;;10.88;100.00;102401.16;5004035;28;44883;-80
2022/03/22 01:42:42;;;;;;;;;23.25;23.25;;;;;10.87;100.00;102403.84;5003006;28;47036;-81
2022/03/22 01:45:09;;;;;;;;;18.33;15.67;;;;;10.86;100.00;102408.31;5004705;28;44818;-80
2022/03/22 01:47:36;;;;;;;;;28.25;25.50;;;;;10.84;100.00;102396.88;5005671;28;45292;-81
2022/03/22 01:50:07;;;;;;;;;29.00;24.00;;;;;10.81;100.00;102405.81;5008298;28;45528;-81
2022/03/22 01:52:36;;;;;;;;;22.75;20.75;;;;;10.80;100.00;102405.91;5005772;28;45166;-82
2022/03/22 01:55:03;;;;;;;;;24.00;22.67;;;;;10.77;100.00;102409.53;5002309;28;44842;-82
2022/03/22 01:57:30;;;;;;;;;27.33;26.67;;;;;10.75;100.00;102400.78;5002171;28;45298;-81
2022/03/22 01:59:56;;;;;;;;;25.67;23.67;;;;;10.72;100.00;102405.34;5001670;28;45222;-82
2022/03/22 02:07:57;;;;;;;;;30.67;23.00;;;;;10.62;100.00;102404.84;5003923;28;44754;-81
2022/03/22 02:10:23;;;;;;;;;30.33;27.67;;;;;10.58;100.00;102408.56;5003112;28;44841;-80
2022/03/22 02:12:49;;;;;;;;;34.33;28.33;;;;;10.54;100.00;102402.53;5003573;28;45011;-79
2022/03/22 02:15:14;;;;;;;;;30.67;29.33;;;;;10.51;100.00;102405.28;5004241;28;45136;-81
2022/03/22 02:17:45;;;;;;;;;30.67;26.67;;;;;10.50;100.00;102402.69;5003448;28;44719;-81
2022/03/22 02:20:12;;;;;;;;;26.00;25.00;;;;;10.47;100.00;102400.16;5006508;28;44719;-80
2022/03/22 02:23:13;;;;;;;;;28.33;23.00;;;;;10.45;100.00;102404.69;5005723;28;46996;-80
2022/03/22 02:25:39;;;;;;;;;27.00;25.33;;;;;10.42;100.00;102404.78;5003880;28;44790;-80
2022/03/22 02:28:05;;;;;;;;;30.33;27.67;;;;;10.39;100.00;102402.25;5004839;28;45345;-80
2022/03/22 02:30:31;;;;;;;;;30.00;27.00;;;;;10.38;100.00;102408.50;5003242;28;45220;-80
2022/03/22 02:33:00;;;;;;;;;29.33;26.67;;;;;10.34;100.00;102397.09;5002620;28;45255;-81
2022/03/22 02:35:28;;;;;;;;;37.67;30.67;;;;;10.32;100.00;102401.63;5002604;28;44715;-79
2022/03/22 02:37:55;;;;;;;;;30.67;29.00;;;;;10.28;100.00;102397.34;5005972;28;44703;-81
2022/03/22 02:40:24;;;;;;;;;29.00;29.00;;;;;10.26;100.00;102400.09;5004745;28;45316;-81
2022/03/22 02:42:50;;;;;;;;;28.67;28.00;;;;;10.26;100.00;102409.84;5006497;28;45424;-81
2022/03/22 02:45:17;;;;;;;;;32.33;30.00;;;;;10.24;100.00;102404.56;5007645;28;44806;-81
2022/03/22 02:47:43;;;;;;;;;34.67;27.00;;;;;10.24;100.00;102401.03;5004661;28;45240;-81
2022/03/22 02:50:10;;;;;;;;;32.67;28.67;;;;;10.21;100.00;102393.19;5005152;28;44862;-81
2022/03/22 02:52:37;;;;;;;;;32.33;28.00;;;;;10.19;100.00;102397.69;5003996;28;45406;-79
2022/03/22 02:55:06;;;;;;;;;33.00;31.00;;;;;10.17;100.00;102404.84;5003722;28;44773;-79
2022/03/22 02:57:35;;;;;;;;;4.00;3.00;;;;;10.14;100.00;102405.81;5003947;28;45310;-81
2022/03/22 03:00:03;;;;;;;;;32.67;27.67;;;;;10.13;100.00;102395.25;5004061;28;44845;-80
2022/03/22 03:02:28;;;;;;;;;30.00;25.00;;;;;10.09;100.00;102405.13;5001621;28;45081;-81
2022/03/22 03:04:54;;;;;;;;;36.00;25.33;;;;;10.07;100.00;102406.13;4996206;28;45073;-81
2022/03/22 03:07:19;;;;;;;;;36.33;29.33;;;;;10.04;100.00;102413.28;4996846;28;44778;-81
2022/03/22 03:09:44;;;;;;;;;31.00;25.33;;;;;10.01;100.00;102416.06;4997957;28;45243;-81
2022/03/22 03:12:10;;;;;;;;;28.67;24.67;;;;;9.97;100.00;102417.09;4997250;28;45394;-82
2022/03/22 03:14:40;;;;;;;;;27.33;23.00;;;;;9.94;100.00;102414.53;4997471;28;45334;-81
2022/03/22 03:17:07;;;;;;;;;33.00;28.33;;;;;9.90;100.00;102423.53;4997906;28;45396;-81
2022/03/22 03:19:32;;;;;;;;;29.00;26.00;;;;;9.87;100.00;102418.34;4996719;28;45377;-81
2022/03/22 03:21:58;;;;;;;;;28.00;28.00;;;;;9.86;100.00;102423.72;4996745;28;45314;-80
2022/03/22 03:24:23;;;;;;;;;21.67;21.67;;;;;9.85;100.00;102422.84;5002474;28;45322;-80
2022/03/22 03:26:49;;;;;;;;;36.33;29.33;;;;;9.81;100.00;102418.56;5003930;28;44815;-81
2022/03/22 03:29:14;;;;;;;;;29.33;24.67;;;;;9.81;100.00;102425.66;4995680;28;45235;-80
2022/03/22 03:31:40;;;;;;;;;26.00;25.33;;;;;9.79;100.00;102426.59;4996937;28;45201;-80
2022/03/22 03:34:05;;;;;;;;;31.67;26.00;;;;;9.77;100.00;102433.75;4996326;28;45172;-79
2022/03/22 03:36:31;;;;;;;;;25.33;25.33;;;;;9.76;100.00;102429.34;4997205;28;45338;-82
2022/03/22 03:38:56;;;;;;;;;26.67;24.67;;;;;9.75;100.00;102427.63;4997920;28;45275;-81
2022/03/22 03:47:07;;;;;;;;;29.00;26.67;;;;;9.69;100.00;102429.66;4998855;28;45334;-81
2022/03/22 03:49:43;;;;;;;;;32.67;29.33;;;;;9.65;100.00;102428.88;5000228;28;45431;-81
2022/03/22 03:52:14;;;;;;;;;30.00;26.33;;;;;9.63;100.00;102430.72;4997403;28;46215;-79
2022/03/22 03:54:40;;;;;;;;;31.33;28.00;;;;;9.60;100.00;102422.88;4997783;28;45293;-80
2022/03/22 03:57:06;;;;;;;;;30.33;29.00;;;;;9.59;100.00;102431.75;4999966;28;45476;-80
2022/03/22 03:59:34;;;;;;;;;38.67;27.00;;;;;9.59;100.00;102433.56;5001091;28;44964;-81
2022/03/22 04:01:59;;;;;;;;;31.00;26.67;;;;;9.56;100.00;102437.16;4997648;28;45336;-80
2022/03/22 04:04:25;;;;;;;;;28.67;26.00;;;;;9.54;100.00;102436.38;4996997;28;45176;-80
2022/03/22 04:06:50;;;;;;;;;29.33;24.67;;;;;9.52;100.00;102436.44;4998800;28;44995;-81
2022/03/22 04:09:16;;;;;;;;;29.67;23.67;;;;;9.51;100.00;102439.97;4998797;28;44774;-80
2022/03/22 04:11:42;;;;;;;;;24.33;20.33;;;;;9.50;100.00;102446.22;4998152;28;45353;-81
2022/03/22 04:14:08;;;;;;;;;36.00;28.00;;;;;9.47;100.00;102441.00;4997224;28;45159;-80
2022/03/22 04:16:34;;;;;;;;;33.33;27.67;;;;;9.45;100.00;102442.00;4997443;28;44809;-81
2022/03/22 04:19:00;;;;;;;;;29.00;28.00;;;;;9.43;100.00;102443.84;4997852;28;44874;-81
2022/03/22 04:21:25;;;;;;;;;33.67;29.00;;;;;9.40;100.00;102446.59;4996887;28;45428;-82
2022/03/22 04:23:51;;;;;;;;;28.00;27.33;;;;;9.37;100.00;102444.88;4996489;28;44748;-81
2022/03/22 04:26:17;;;;;;;;;28.33;26.33;;;;;9.34;100.00;102444.16;4997483;28;44768;-82
2022/03/22 04:34:10;;;;;;;;;29.00;26.67;;;;;9.25;100.00;102453.28;4995537;28;45306;-80
2022/03/22 04:36:36;;;;;;;;;33.33;28.00;;;;;9.22;100.00;102448.94;4995547;28;45400;-81
2022/03/22 04:39:02;;;;;;;;;35.67;30.00;;;;;9.18;100.00;102447.31;4997516;28;44837;-81
2022/03/22 04:41:28;;;;;;;;;36.00;30.33;;;;;9.16;100.00;102453.59;4997367;28;45474;-81
2022/03/22 04:43:53;;;;;;;;;33.67;32.00;;;;;9.13;100.00;102454.53;4998101;28;45441;-80
2022/03/22 04:46:19;;;;;;;;;28.33;25.33;;;;;9.11;100.00;102467.00;4998059;28;44798;-80
2022/03/22 04:48:45;;;;;;;;;34.67;31.00;;;;;9.08;100.00;102455.63;4999356;28;44849;-81
2022/03/22 04:56:43;;;;;;;;;34.67;28.67;;;;;8.99;100.00;102454.13;4979155;28;44740;-81
2022/03/22 04:59:09;;;;;;;;;35.33;30.00;;;;;8.97;100.00;102472.75;4980196;28;45403;-80
2022/03/22 05:01:34;;;;;;;;;33.33;29.67;;;;;8.95;100.00;102469.28;4985398;28;45157;-81
2022/03/22 05:04:00;;;;;;;;;30.00;29.67;;;;;8.93;100.00;102471.09;4986048;28;44759;-81
2022/03/22 05:06:35;;;;;;;;;32.67;29.67;;;;;8.89;100.00;102464.16;4980739;28;45447;-81
2022/03/22 05:09:02;;;;;;;;;29.33;25.67;;;;;8.88;100.00;102473.03;4980681;28;44854;-81
2022/03/22 05:11:27;;;;;;;;;37.00;30.33;;;;;8.84;100.00;102468.75;4979326;28;45523;-81
2022/03/22 05:13:54;;;;;;;;;33.67;29.67;;;;;8.84;100.00;102473.19;4979680;28;45401;-82
2022/03/22 05:16:19;;;;;;;;;32.00;27.67;;;;;8.82;100.00;102475.03;4978529;28;45459;-80
2022/03/22 05:18:45;;;;;;;;;29.67;27.67;;;;;8.83;100.00;102468.81;4977771;28;45311;-80
2022/03/22 05:21:10;;;;;;;;;32.00;29.00;;;;;8.80;100.00;102477.75;4978891;28;45178;-79
2022/03/22 05:23:36;;;;;;;;;27.00;23.67;;;;;8.80;100.00;102472.44;4977325;28;44747;-80
2022/03/22 05:26:04;;;;;;;;;30.33;29.00;;;;;8.79;100.00;102477.75;4978849;28;45377;-80
2022/03/22 05:28:29;;;;;;;;;38.33;29.67;;;;;8.79;100.00;102480.41;4979011;28;45693;-80
2022/03/22 05:30:55;;;;;;;;;32.67;29.00;;;;;8.78;100.00;102486.63;4983620;28;45015;-84
2022/03/22 05:33:20;;;;;;;;;30.67;29.67;;;;;8.76;100.00;102492.00;4988552;28;44747;-84
2022/03/22 05:35:46;;;;;;;;;35.33;30.67;;;;;8.75;100.00;102490.22;4987888;28;45064;-85
2022/03/22 05:38:11;;;;;;;;;32.33;32.00;;;;;8.73;100.00;102495.59;4987150;28;44743;-84
2022/03/22 05:40:38;;;;;;;;;36.67;30.33;;;;;8.70;100.00;102493.06;4984586;28;46196;-85
2022/03/22 05:43:04;;;;;;;;;34.67;29.00;;;;;8.71;100.00;102501.88;4981976;28;44681;-85
2022/03/22 05:45:31;;;;;;;;;35.00;29.67;;;;;8.70;100.00;102493.06;4979834;28;44827;-84
2022/03/22 05:47:58;;;;;;;;;33.00;29.67;;;;;8.71;100.00;102493.91;4979997;28;45462;-85
2022/03/22 05:50:24;;;;;;;;;31.33;27.67;;;;;8.70;100.00;102502.75;4980923;28;45345;-84
2022/03/22 05:52:49;;;;;;;;;36.33;29.00;;;;;8.71;100.00;102505.38;4978737;28;45310;-86
2022/03/22 05:55:15;;;;;;;;;33.67;29.67;;;;;8.71;100.00;102508.03;4981987;28;45255;-84
2022/03/22 05:57:41;;;;;;;;;40.67;32.33;;;;;8.70;100.00;102506.31;4978941;28;45389;-85
2022/03/22 06:00:08;;;;;;;;;30.67;27.00;;;;;8.71;100.00;102517.78;4983213;28;47337;-85
2022/03/22 06:02:41;;;;;;;;;30.33;28.33;;;;;8.72;100.00;102517.72;4982087;28;45516;-86
2022/03/22 06:05:11;;;;;;;;;30.67;27.00;;;;;8.74;100.00;102526.47;4982793;28;44779;-85
2022/03/22 06:07:38;;;;;;;;;37.67;31.33;;;;;8.75;100.00;102519.38;4986232;28;45394;-86
2022/03/22 06:10:05;;;;;;;;;35.00;29.67;;;;;8.77;100.00;102524.66;4990895;28;45428;-87
2022/03/22 06:12:53;;;;;;;;;27.00;24.67;;;;;8.79;100.00;102528.97;4984033;28;45393;-85
2022/03/22 06:15:21;;;;;;;;;27.00;20.33;;;;;8.84;100.00;102534.13;4979484;28;45199;-85
2022/03/22 06:18:03;;;;;;;;;34.00;28.33;;;;;8.86;100.00;102538.50;4981654;28;44765;-86
2022/03/22 06:20:37;;;;;;;;;32.33;28.67;;;;;8.90;100.00;102533.97;4986564;28;45282;-86
2022/03/22 06:23:05;;;;;;;;;34.33;26.00;;;;;8.92;100.00;102530.34;4986151;28;44822;-85
2022/03/22 06:25:31;;;;;;;;;37.00;29.33;;;;;8.98;100.00;102539.88;4988450;28;44648;-88
2022/03/22 06:27:57;;;;;;;;;30.67;30.00;;;;;9.01;100.00;102542.44;4986606;28;44886;-86
2022/03/22 06:30:24;;;;;;;;;31.67;31.33;;;;;9.06;100.00;102547.59;4981358;28;45355;-86
2022/03/22 06:32:58;;;;;;;;;33.67;29.00;;;;;9.10;100.00;102551.91;4979278;28;44815;-86
2022/03/22 06:35:29;;;;;;;;;33.00;27.33;;;;;9.16;100.00;102544.59;4980141;28;44863;-86
2022/03/22 06:37:55;;;;;;;;;35.33;31.00;;;;;9.24;100.00;102549.69;4981497;28;44756;-85
2022/03/22 06:40:23;;;;;;;;;33.33;31.33;;;;;9.30;100.00;102546.81;4988066;28;44994;-86
2022/03/22 06:42:50;;;;;;;;;34.00;27.67;;;;;9.39;100.00;102551.81;4989397;28;44759;-87
2022/03/22 06:45:16;;;;;;;;;35.67;32.33;;;;;9.46;100.00;102549.81;4985442;28;44932;-86
2022/03/22 06:47:43;;;;;;;;;39.00;32.00;;;;;9.53;100.00;102554.03;4983953;28;44958;-86
2022/03/22 06:50:11;;;;;;;;;37.67;33.67;;;;;9.56;100.00;102561.00;4984388;28;45163;-87
2022/03/22 06:52:37;;;;;;;;;33.33;31.00;;;;;9.63;100.00;102567.84;4980846;28;45386;-85
2022/03/22 06:55:04;;;;;;;;;29.00;27.33;;;;;9.70;100.00;102567.56;5006580;28;45345;-86
2022/03/22 06:57:31;;;;;;;;;37.00;31.33;;;;;9.79;100.00;102566.41;5005591;28;45411;-86
2022/03/22 06:59:57;;;;;;;;;30.00;29.67;;;;;9.87;100.00;102572.31;5004917;28;46732;-85
2022/03/22 07:02:23;;;;;;;;;39.00;34.33;;;;;9.94;100.00;102571.19;5016042;28;45325;-86
2022/03/22 07:04:49;;;;;;;;;31.00;28.00;;;;;10.03;100.00;102556.72;4998339;28;45259;-86
2022/03/22 07:07:18;;;;;;;;;37.67;30.33;;;;;10.11;100.00;102554.66;4999502;28;44865;-86
2022/03/22 07:09:45;;;;;;;;;34.33;29.67;;;;;10.23;100.00;102554.22;4997936;28;45420;-86
2022/03/22 07:12:13;;;;;;;;;39.33;33.00;;;;;10.32;100.00;102554.84;4999310;28;44795;-86
2022/03/22 07:14:40;;;;;;;;;31.33;31.00;;;;;10.42;100.00;102562.41;5000915;28;45551;-86
2022/03/22 07:17:07;;;;;;;;;36.00;31.33;;;;;10.49;100.00;102555.97;5004744;28;45333;-86
2022/03/22 07:19:34;;;;;;;;;38.33;32.67;;;;;10.61;100.00;102564.38;5002953;28;46824;-86
2022/03/22 07:22:01;;;;;;;;;34.00;31.67;;;;;10.69;100.00;102579.13;5003472;28;44760;-86
2022/03/22 07:24:26;;;;;;;;;31.67;30.67;;;;;10.77;100.00;102574.34;5009202;28;45317;-84
2022/03/22 07:26:51;;;;;;;;;36.67;33.00;;;;;10.87;100.00;102574.88;5026788;28;44794;-87
2022/03/22 07:29:17;;;;;;;;;33.33;30.67;;;;;10.95;100.00;102575.44;5004763;28;45167;-86
2022/03/22 07:31:42;;;;;;;;;39.33;34.00;;;;;11.01;100.00;102574.34;5014744;28;44984;-86
2022/03/22 07:34:11;;;;;;;;;40.00;31.00;;;;;11.12;100.00;102576.56;4999520;28;44804;-87
2022/03/22 07:36:37;;;;;;;;;44.67;35.00;;;;;11.21;100.00;102570.88;4998378;28;45297;-87
2022/03/22 07:39:07;;;;;;;;;32.67;31.33;;;;;11.31;100.00;102577.56;5010288;28;45192;-87
2022/03/22 07:41:34;;;;;;;;;40.67;32.67;;;;;11.40;100.00;102573.66;5006815;28;45077;-87
2022/03/22 07:44:01;;;;;;;;;33.67;32.33;;;;;11.47;100.00;102576.03;5008319;28;45519;-88
2022/03/22 07:46:27;;;;;;;;;45.33;33.33;;;;;11.50;100.00;102575.03;5003052;28;44921;-88
2022/03/22 07:52:57;;;;;;;;;34.33;31.00;;;;;11.59;100.00;102577.31;5010985;28;45135;-87
2022/03/22 07:54:24;;;;;;;;;48.00;36.33;;;;;11.80;100.00;102586.22;5001645;28;45393;-88
2022/03/22 07:56:50;;;;;;;;;39.00;34.67;;;;;11.89;100.00;102587.63;4999529;28;45352;-88
2022/03/22 07:59:16;;;;;;;;;42.00;32.00;;;;;11.94;100.00;102589.19;4999219;28;45197;-86
2022/03/22 08:01:41;;;;;;;;;35.00;32.67;;;;;12.03;100.00;102586.09;5000738;28;45290;-87
2022/03/22 08:04:07;;;;;;;;;37.00;31.00;;;;;12.13;100.00;102589.22;5000480;28;44815;-88
2022/03/22 08:06:32;;;;;;;;;36.00;31.00;;;;;12.17;100.00;102587.28;5000008;28;45230;-86
2022/03/22 08:08:58;;;;;;;;;38.33;32.00;;;;;12.25;100.00;102578.03;4999288;28;46690;-86
2022/03/22 08:11:24;;;;;;;;;44.00;33.00;;;;;12.33;100.00;102583.91;5006949;28;44856;-88
2022/03/22 08:13:49;;;;;;;;;33.00;30.00;;;;;12.42;100.00;102581.72;5009789;28;44681;-88
2022/03/22 08:16:15;;;;;;;;;43.67;32.67;;;;;12.54;100.00;102579.38;5009840;28;44944;-89
2022/03/22 08:18:40;;;;;;;;;38.00;31.67;;;;;12.67;100.00;102582.38;5008090;28;45234;-88
2022/03/22 08:21:06;;;;;;;;;34.33;31.33;;;;;12.73;100.00;102586.56;5012905;28;45188;-92
2022/03/22 08:23:31;;;;;;;;;37.67;31.33;;;;;12.83;100.00;102579.84;5015590;28;44645;-90
2022/03/22 08:25:57;;;;;;;;;42.67;33.00;;;;;12.90;100.00;102588.41;5010590;28;45016;-89
2022/03/22 08:28:22;;;;;;;;;33.33;30.00;;;;;13.02;100.00;102594.06;5010798;28;45935;-88
2022/03/22 08:30:48;;;;;;;;;35.00;33.00;;;;;13.13;100.00;102582.84;5007827;28;45317;-88
2022/03/22 08:33:13;;;;;;;;;37.33;31.33;;;;;13.29;100.00;102596.34;5016169;28;44952;-89
2022/03/22 08:35:47;;;;;;;;;31.67;30.00;;;;;13.39;99.20;102586.94;5018775;28;44878;-88
2022/03/22 08:38:14;;;;;;;;;28.33;27.67;;;;;13.54;97.48;102599.56;5020557;28;45668;-90
2022/03/22 08:40:40;;;;;;;;;32.00;29.33;;;;;13.63;92.05;102592.88;5019830;28;44753;-88
2022/03/22 08:43:07;;;;;;;;;36.75;29.50;;;;;13.66;89.78;102600.75;5020336;28;44791;-89
2022/03/22 08:45:33;;;;;;;;;29.25;26.00;;;;;13.78;85.78;102596.59;5027134;28;44904;-88
2022/03/22 08:48:00;;;;;;;;;24.50;24.00;;;;;13.93;82.06;102598.50;5026061;28;46641;-90
2022/03/22 08:50:26;;;;;;;;;33.75;26.50;;;;;13.95;77.15;102601.94;5024562;28;44620;-89
2022/03/22 08:52:54;;;;;;;;;25.25;23.50;;;;;14.00;68.09;102607.91;5024489;28;44661;-89
2022/03/22 08:55:20;;;;;;;;;27.50;22.25;;;;;14.02;59.16;102603.38;5022854;28;44912;-89
2022/03/22 08:57:48;;;;;;;;;22.50;21.75;;;;;14.02;59.82;102598.03;5022595;28;45288;-89
2022/03/22 09:00:16;;;;;;;;;20.25;16.50;;;;;14.05;55.33;102607.69;5022853;28;44774;-87
2022/03/22 09:02:43;;;;;;;;;21.75;19.75;;;;;14.10;43.87;102611.84;5018646;28;45400;-89
2022/03/22 09:07:58;;;;;;;;;17.50;13.75;;;;;14.36;41.45;102617.66;5017487;28;44999;-90
2022/03/22 09:10:24;;;;;;;;;14.50;12.25;;;;;14.39;43.13;102623.69;5020157;28;44838;-90
2022/03/22 09:12:50;;;;;;;;;20.50;20.50;;;;;14.51;44.35;102618.69;5015863;28;45222;-92
2022/03/22 09:15:18;;;;;;;;;22.75;20.50;;;;;14.66;45.86;102625.88;5017118;28;44720;-89
2022/03/22 09:17:43;;;;;;;;;21.50;21.50;;;;;14.80;49.81;102620.66;5015117;28;47187;-88
2022/03/22 09:20:13;;;;;;;;;25.75;20.75;;;;;14.92;52.79;102619.09;5014428;28;44813;-89
2022/03/22 09:22:39;;;;;;;;;27.00;24.25;;;;;14.99;52.16;102609.78;5014143;28;44750;-90
2022/03/22 09:25:05;;;;;;;;;19.75;19.75;;;;;15.06;52.20;102616.53;5011976;28;44746;-90
2022/03/22 09:27:32;;;;;;;;;18.25;18.25;;;;;15.09;50.66;102611.00;5010958;28;46289;-90
2022/03/22 09:29:57;;;;;;;;;18.00;17.25;;;;;15.17;49.69;102615.91;5009255;28;44680;-90
2022/03/22 09:32:23;;;;;;;;;21.00;15.75;;;;;15.15;48.85;102609.78;5016423;28;44698;-90
2022/03/22 09:34:48;;;;;;;;;20.75;15.75;;;;;15.17;45.94;102613.25;5015590;28;44841;-89
2022/03/22 09:37:16;;;;;;;;;19.50;15.25;;;;;15.26;47.56;102611.88;5016970;28;45099;-91
2022/03/22 09:39:45;;;;;;;;;19.25;17.25;;;;;15.25;48.76;102607.47;5013816;28;44823;-90
2022/03/22 09:42:11;;;;;;;;;23.50;17.00;;;;;15.26;47.89;102617.22;5007859;28;44833;-92
2022/03/22 09:44:37;;;;;;;;;25.50;20.75;;;;;15.36;46.37;102615.75;5006829;28;44948;-91
2022/03/22 09:47:04;;;;;;;;;15.75;15.75;;;;;15.47;44.02;102615.13;5015400;28;45009;-90
2022/03/22 09:49:30;;;;;;;;;5.50;4.75;;;;;15.60;45.49;102606.28;5020592;28;44756;-91
2022/03/22 09:51:56;;;;;;;;;13.25;13.25;;;;;15.72;45.51;102618.16;5023770;28;44703;-88
2022/03/22 09:54:22;;;;;;;;;20.50;15.25;;;;;15.74;44.75;102605.53;5010853;28;45309;-91
2022/03/22 09:56:50;;;;;;;;;17.00;17.00;;;;;15.81;43.42;102609.59;5009921;28;45034;-89
2022/03/22 09:59:20;;;;;;;;;23.75;18.50;;;;;15.93;41.81;102621.38;5007708;28;44627;-90
2022/03/22 10:01:46;;;;;;;;;22.25;16.75;;;;;16.02;41.09;102609.25;5011976;28;44716;-90
2022/03/22 10:04:14;;;;;;;;;20.75;16.25;;;;;16.05;41.66;102607.25;5012467;28;45294;-89
2022/03/22 10:06:57;;;;;;;;;18.25;18.00;;;;;16.14;40.99;102612.03;5006155;28;45361;-89
2022/03/22 10:09:30;;;;;;;;;20.60;18.80;;;;;16.22;41.63;102606.22;5004479;28;45351;-91
2022/03/22 10:11:59;;;;;;;;;23.25;20.75;;;;;16.30;40.14;102608.44;5012214;28;44754;-90
2022/03/22 10:14:39;;;;;;;;;19.25;19.25;;;;;16.28;38.39;102607.66;5007100;28;44884;-90
2022/03/22 10:17:12;;;;;;;;;13.25;13.25;;;;;16.26;35.96;102606.91;5006690;28;47196;-90
2022/03/22 10:19:51;;;;;;;;;20.20;16.40;;;;;16.29;37.63;102604.00;5004395;28;44813;-91
2022/03/22 10:22:25;;;;;;;;;20.50;19.50;;;;;16.19;36.99;102606.41;5002024;28;44836;-90
2022/03/22 10:24:53;;;;;;;;;20.50;16.75;;;;;16.23;38.83;102591.84;5000783;28;44818;-90
2022/03/22 10:27:33;;;;;;;;;18.25;16.25;;;;;16.32;39.45;102598.47;5001188;28;45654;-89
2022/03/22 10:30:00;;;;;;;;;20.60;18.40;;;;;16.45;39.51;102596.78;5002289;28;45254;-91
2022/03/22 10:32:33;;;;;;;;;16.40;16.20;;;;;16.55;39.21;102595.25;5001598;28;44702;-91
2022/03/22 10:35:14;;;;;;;;;23.00;16.50;;;;;16.68;39.33;102593.50;4996454;28;44937;-88
2022/03/22 10:37:48;;;;;;;;;20.75;19.50;;;;;16.82;38.20;102603.38;4991386;28;45565;-88
2022/03/22 10:40:51;;;;;;;;;15.80;15.80;;;;;16.84;36.46;102597.94;5001140;28;44814;-90
2022/03/22 10:43:23;;;;;;;;;20.40;15.00;;;;;16.90;37.40;102589.47;4945539;28;44801;-90
2022/03/22 10:46:01;;;;;;;;;16.75;15.75;;;;;16.96;36.16;102583.72;4947262;28;44742;-88
2022/03/22 10:48:33;;;;;;;;;19.25;17.75;;;;;17.02;37.00;102594.09;4951129;28;47042;-88
2022/03/22 10:51:00;;;;;;;;;20.60;17.60;;;;;17.10;38.89;102588.19;4937107;28;44786;-87
2022/03/22 10:53:27;;;;;;;;;18.00;18.00;;;;;17.25;38.88;102580.97;4935118;28;44857;-89
2022/03/22 10:55:54;;;;;;;;;24.50;20.50;;;;;17.40;38.20;102577.25;4953382;28;44835;-90
2022/03/22 10:58:21;;;;;;;;;24.25;19.00;;;;;17.50;37.16;102578.34;4952525;28;45525;-91
2022/03/22 11:00:49;;;;;;;;;18.00;16.20;;;;;17.55;35.87;102573.56;4953762;28;44745;-93
2022/03/22 11:03:17;;;;;;;;;22.00;19.50;;;;;17.61;37.19;102570.47;4933362;28;44773;-91
2022/03/22 11:05:50;;;;;;;;;20.00;15.25;;;;;17.67;36.73;102574.56;4950757;28;44764;-90
2022/03/22 11:08:23;;;;;;;;;19.25;17.00;;;;;17.69;34.27;102569.94;4933470;28;45224;-90
2022/03/22 11:10:51;;;;;;;;;19.00;16.20;;;;;17.72;34.48;102567.03;4934190;28;45578;-90
2022/03/22 11:13:16;;;;;;;;;16.00;14.50;;;;;17.77;34.12;102559.56;4942066;28;44756;-92
2022/03/22 11:15:45;;;;;;;;;19.25;19.25;;;;;17.81;32.58;102569.13;4914090;28;45655;-91
2022/03/22 11:18:12;;;;;;;;;15.50;15.50;;;;;17.88;34.26;102553.44;4947116;28;45031;-90
2022/03/22 11:20:52;;;;;;;;;16.00;14.60;;;;;17.97;33.83;102556.34;4971216;28;44677;-89
2022/03/22 11:23:23;;;;;;;;;18.80;16.80;;;;;18.01;33.76;102554.31;5008997;28;44889;-91
2022/03/22 11:25:49;;;;;;;;;18.25;15.75;;;;;18.10;34.01;102556.38;5003587;28;44824;-90
2022/03/22 11:28:24;;;;;;;;;16.75;16.75;;;;;18.21;34.39;102555.63;5006036;28;45281;-90
2022/03/22 11:30:51;;;;;;;;;18.40;18.40;;;;;18.23;36.30;102546.47;4993153;28;45452;-91
2022/03/22 11:36:20;;;;;;;;;17.25;15.50;;;;;18.24;37.93;102541.97;4994064;28;44742;-91
2022/03/22 11:38:53;;;;;;;;;21.50;19.50;;;;;18.24;38.96;102536.56;4989739;28;45170;-90